Time;durP1;ratioP1;P1;durP2;ratioP2;P2;SDS_P1;SDS_P2;PMS_P1;PMS_P2;Temp;Humidity;BMP_temperature;BMP_pressure;BME280_temperature;BME280_humidity;BME280_pressure;Samples;Min_cycle;Max_cycle;Signal;HPM_P1;HPM_P2
2022/04/07 00:00:50;;;;;;;2.83;1.70;;;10.20;88.70;;;;;;5112535;28;20051;-71
2022/04/07 00:03:16;;;;;;;2.42;1.60;;;10.10;88.70;;;;;;5112958;28;20499;-71
2022/04/07 00:05:41;;;;;;;2.45;1.52;;;10.10;88.90;;;;;;5113175;28;20043;-71
2022/04/07 00:08:07;;;;;;;1.90;1.45;;;10.10;88.90;;;;;;5112703;28;20504;-71
2022/04/07 00:10:34;;;;;;;2.55;1.60;;;10.10;89.00;;;;;;5112866;28;20077;-71
2022/04/07 00:13:00;;;;;;;2.97;1.27;;;10.00;88.90;;;;;;5112888;28;20047;-72
2022/04/07 00:15:26;;;;;;;2.47;1.25;;;10.00;88.90;;;;;;5112473;28;20130;-71
2022/04/07 00:17:52;;;;;;;2.65;1.60;;;10.10;89.00;;;;;;5112419;28;20071;-71
2022/04/07 00:20:18;;;;;;;2.55;1.40;;;10.10;89.00;;;;;;5112489;28;20128;-70
2022/04/07 00:22:45;;;;;;;1.80;1.50;;;10.10;89.10;;;;;;5094804;28;20096;-71
2022/04/07 00:25:10;;;;;;;1.90;1.40;;;10.00;89.00;;;;;;5116038;28;20058;-70
2022/04/07 00:27:37;;;;;;;1.92;1.50;;;10.00;89.00;;;;;;5116081;28;20031;-71
2022/04/07 00:30:04;;;;;;;2.70;1.85;;;10.00;89.10;;;;;;5097541;28;20390;-71
2022/04/07 00:32:30;;;;;;;2.58;1.90;;;9.90;89.20;;;;;;5115892;28;20055;-71
2022/04/07 00:34:56;;;;;;;2.50;1.60;;;9.90;89.60;;;;;;5116193;28;20449;-72
2022/04/07 00:37:24;;;;;;;2.17;1.70;;;9.90;89.40;;;;;;5116272;28;20504;-71
2022/04/07 00:39:51;;;;;;;3.28;1.50;;;9.90;90.00;;;;;;5115594;28;20047;-71
2022/04/07 00:42:18;;;;;;;2.00;1.35;;;9.80;89.50;;;;;;5097213;28;20092;-72
2022/04/07 00:44:44;;;;;;;2.80;1.50;;;9.80;89.60;;;;;;5115961;28;20469;-72
2022/04/07 00:47:11;;;;;;;2.55;1.40;;;9.80;89.70;;;;;;5115562;28;20032;-71
2022/04/07 00:49:37;;;;;;;1.88;1.38;;;9.80;89.60;;;;;;5097369;28;20036;-71
2022/04/07 00:52:03;;;;;;;1.77;1.40;;;9.90;89.80;;;;;;5096758;28;20058;-71
2022/04/07 00:54:30;;;;;;;2.13;1.30;;;9.80;89.70;;;;;;5097207;28;20094;-71
2022/04/07 00:56:59;;;;;;;1.88;1.30;;;9.80;89.70;;;;;;5115286;28;20081;-71
2022/04/07 00:59:25;;;;;;;3.17;1.58;;;9.80;89.60;;;;;;5115918;28;20096;-71
2022/04/07 01:01:50;;;;;;;2.05;1.45;;;9.90;89.60;;;;;;5115457;28;20460;-71
2022/04/07 01:04:16;;;;;;;2.10;1.48;;;10.00;89.60;;;;;;5115614;28;20457;-71
2022/04/07 01:06:43;;;;;;;2.83;1.20;;;9.90;89.30;;;;;;5095932;28;20481;-71
2022/04/07 01:09:10;;;;;;;2.67;1.60;;;9.90;89.30;;;;;;5115533;28;20504;-71
2022/04/07 01:11:37;;;;;;;1.98;1.20;;;9.90;89.20;;;;;;5096734;28;20073;-71
2022/04/07 01:14:04;;;;;;;2.67;1.35;;;9.90;89.10;;;;;;5115219;28;20047;-71
2022/04/07 01:16:30;;;;;;;2.70;1.00;;;9.90;89.00;;;;;;5114930;28;20055;-71
2022/04/07 01:18:59;;;;;;;4.40;1.42;;;9.90;89.00;;;;;;5115090;28;20044;-71
2022/04/07 01:21:26;;;;;;;1.88;1.02;;;9.90;89.10;;;;;;5096588;28;20043;-71
2022/04/07 01:24:09;;;;;;;2.47;1.13;;;9.80;89.20;;;;;;5114728;28;20047;-71
2022/04/07 01:26:38;;;;;;;3.03;1.30;;;9.70;89.30;;;;;;5115445;28;20096;-71
2022/04/07 01:29:05;;;;;;;3.20;1.25;;;9.70;89.50;;;;;;5095663;28;20543;-71
2022/04/07 01:31:32;;;;;;;3.13;1.00;;;9.60;89.70;;;;;;5114919;28;20069;-72
2022/04/07 01:33:58;;;;;;;2.13;0.93;;;9.50;89.90;;;;;;5113984;28;20051;-72
2022/04/07 01:36:27;;;;;;;1.65;0.88;;;9.40;90.00;;;;;;5114370;28;20035;-71
2022/04/07 01:38:55;;;;;;;1.52;0.93;;;9.40;90.10;;;;;;5114678;28;20377;-71
2022/04/07 01:41:22;;;;;;;3.30;1.23;;;9.40;90.20;;;;;;5114480;28;20047;-72
2022/04/07 01:43:50;;;;;;;1.75;1.00;;;9.30;90.20;;;;;;5114996;28;20465;-71
2022/04/07 01:46:17;;;;;;;1.70;0.82;;;9.30;90.20;;;;;;5114981;28;20059;-72
2022/04/07 01:48:44;;;;;;;1.77;1.10;;;9.30;90.30;;;;;;5114717;28;20115;-71
2022/04/07 01:51:12;;;;;;;2.03;1.17;;;9.20;90.30;;;;;;5114641;28;20469;-71
2022/04/07 01:53:38;;;;;;;2.28;1.02;;;9.20;90.30;;;;;;5114879;28;20044;-71
2022/04/07 01:56:05;;;;;;;1.75;1.00;;;9.30;90.30;;;;;;5079477;28;20100;-71
2022/04/07 01:58:31;;;;;;;2.40;0.90;;;9.30;90.30;;;;;;5114881;28;20476;-72
2022/04/07 02:00:57;;;;;;;1.52;1.15;;;9.30;90.30;;;;;;5114581;28;20036;-72
2022/04/07 02:03:23;;;;;;;3.30;1.20;;;9.30;90.30;;;;;;5096598;28;20358;-71
2022/04/07 02:05:49;;;;;;;2.90;1.10;;;9.40;90.30;;;;;;5114403;28;20031;-71
2022/04/07 02:08:15;;;;;;;2.60;1.20;;;9.30;90.30;;;;;;5114293;28;20031;-71
2022/04/07 02:10:40;;;;;;;3.13;1.00;;;9.30;90.30;;;;;;5095963;28;20035;-72
2022/04/07 02:13:06;;;;;;;2.88;1.27;;;9.30;90.30;;;;;;5114383;28;20119;-72
2022/04/07 02:15:32;;;;;;;4.75;1.50;;;9.30;90.30;;;;;;5114240;28;20047;-71
2022/04/07 02:17:58;;;;;;;3.40;1.23;;;9.30;90.30;;;;;;5114157;28;20032;-72
2022/04/07 02:20:24;;;;;;;3.72;1.48;;;9.30;90.30;;;;;;5113920;28;20469;-71
2022/04/07 02:22:50;;;;;;;1.75;1.13;;;9.20;90.40;;;;;;5096014;28;20108;-72
2022/04/07 02:25:16;;;;;;;2.28;1.27;;;9.30;90.40;;;;;;5096049;28;20039;-72
2022/04/07 02:27:44;;;;;;;3.55;1.10;;;9.20;90.40;;;;;;5114048;28;20031;-72
2022/04/07 02:30:12;;;;;;;1.98;1.30;;;9.20;90.40;;;;;;5114109;28;20389;-72
2022/04/07 02:32:38;;;;;;;3.33;1.15;;;9.20;90.50;;;;;;5114080;28;20047;-72
2022/04/07 02:35:05;;;;;;;1.77;1.17;;;9.20;90.50;;;;;;5110535;28;20104;-71
2022/04/07 02:37:30;;;;;;;3.15;1.17;;;9.10;90.50;;;;;;5113856;28;20047;-72
2022/04/07 02:39:56;;;;;;;1.50;0.88;;;9.10;90.50;;;;;;5095283;28;20036;-72
2022/04/07 02:42:22;;;;;;;2.90;1.00;;;9.10;90.50;;;;;;5113692;28;20042;-72
2022/04/07 02:44:48;;;;;;;2.40;1.17;;;9.20;90.60;;;;;;5113659;28;20040;-72
2022/04/07 02:47:14;;;;;;;2.65;1.25;;;9.10;90.60;;;;;;5113536;28;20112;-72
2022/04/07 02:49:40;;;;;;;3.00;1.20;;;9.10;90.60;;;;;;5113726;28;20039;-71
2022/04/07 02:52:08;;;;;;;1.13;0.80;;;9.10;90.60;;;;;;5113721;28;20048;-72
2022/04/07 02:54:34;;;;;;;2.90;0.90;;;9.10;90.60;;;;;;5113749;28;20544;-72
2022/04/07 02:57:00;;;;;;;2.45;1.08;;;9.20;90.70;;;;;;5113797;28;20982;-72
2022/04/07 02:59:26;;;;;;;2.60;1.02;;;9.10;90.60;;;;;;5113482;28;20036;-72
2022/04/07 03:01:53;;;;;;;2.30;0.95;;;9.20;90.70;;;;;;5113267;28;20047;-72
2022/04/07 03:04:19;;;;;;;3.15;1.20;;;9.20;90.60;;;;;;5113802;28;20439;-72
2022/04/07 03:06:45;;;;;;;1.63;1.08;;;9.20;90.60;;;;;;5113698;28;20130;-72
2022/04/07 03:09:11;;;;;;;3.17;1.20;;;9.20;90.60;;;;;;5113442;28;20047;-72
2022/04/07 03:11:36;;;;;;;2.58;1.30;;;9.20;90.50;;;;;;5113585;28;20039;-71
2022/04/07 03:14:02;;;;;;;2.80;1.20;;;9.30;90.50;;;;;;5113514;28;20051;-72
2022/04/07 03:16:28;;;;;;;4.00;1.35;;;9.40;90.50;;;;;;5094378;28;20036;-72
2022/04/07 03:18:54;;;;;;;4.25;1.40;;;9.30;90.40;;;;;;5113378;28;20088;-72
2022/04/07 03:21:20;;;;;;;4.63;1.50;;;9.40;90.40;;;;;;5113287;28;20127;-72
2022/04/07 03:23:45;;;;;;;2.45;1.30;;;9.30;90.40;;;;;;5112948;28;20039;-72
2022/04/07 03:26:11;;;;;;;2.90;1.13;;;9.40;90.30;;;;;;5113690;28;20040;-72
2022/04/07 03:28:37;;;;;;;2.50;1.10;;;9.50;90.40;;;;;;5113620;28;20118;-72
2022/04/07 03:31:03;;;;;;;4.18;1.25;;;9.50;90.30;;;;;;5095282;28;20043;-72
2022/04/07 03:33:29;;;;;;;4.93;1.42;;;9.50;90.30;;;;;;5113082;28;20163;-72
2022/04/07 03:35:54;;;;;;;2.83;1.48;;;9.50;90.20;;;;;;5113698;28;20512;-73
2022/04/07 03:38:20;;;;;;;3.55;1.42;;;9.50;90.20;;;;;;5112889;28;20111;-72
2022/04/07 03:40:46;;;;;;;5.75;1.60;;;9.50;90.20;;;;;;5112892;28;20054;-72
2022/04/07 03:43:12;;;;;;;4.45;1.83;;;9.60;90.20;;;;;;5112600;28;20122;-72
2022/04/07 03:45:38;;;;;;;5.05;1.60;;;9.60;90.10;;;;;;5113341;28;20047;-72
2022/04/07 03:48:04;;;;;;;3.97;1.45;;;9.60;90.10;;;;;;5112920;28;20118;-71
2022/04/07 03:50:30;;;;;;;4.93;1.50;;;9.60;90.00;;;;;;5113393;28;20043;-73
2022/04/07 03:52:55;;;;;;;5.07;1.67;;;9.60;90.10;;;;;;5112997;28;20040;-72
2022/04/07 03:55:22;;;;;;;3.05;1.27;;;9.50;90.10;;;;;;5113291;28;20051;-72
2022/04/07 03:57:48;;;;;;;6.07;1.65;;;9.60;90.10;;;;;;5111786;28;20053;-72
2022/04/07 04:00:16;;;;;;;4.57;1.50;;;9.50;90.20;;;;;;5094457;28;20044;-71
2022/04/07 04:02:42;;;;;;;3.25;1.30;;;9.50;90.20;;;;;;5112990;28;20548;-72
2022/04/07 04:05:08;;;;;;;4.00;1.38;;;9.40;90.20;;;;;;5112860;28;20043;-72
2022/04/07 04:07:34;;;;;;;3.58;1.60;;;9.50;90.20;;;;;;5112941;28;20115;-72
2022/04/07 04:10:01;;;;;;;2.58;1.33;;;9.50;90.20;;;;;;5113179;28;20545;-72
2022/04/07 04:12:26;;;;;;;3.75;1.48;;;9.50;90.20;;;;;;5112657;28;20032;-71
2022/04/07 04:14:52;;;;;;;3.00;1.50;;;9.50;90.20;;;;;;5112881;28;20496;-72
2022/04/07 04:17:18;;;;;;;5.40;1.52;;;9.50;90.10;;;;;;5112680;28;20051;-72
2022/04/07 04:19:44;;;;;;;6.90;1.85;;;9.60;90.20;;;;;;5112480;28;20477;-72
2022/04/07 04:22:10;;;;;;;4.28;1.27;;;9.60;90.10;;;;;;5112588;28;20393;-73
2022/04/07 04:24:36;;;;;;;7.05;2.17;;;9.50;90.00;;;;;;5112407;28;20040;-72
2022/04/07 04:27:02;;;;;;;5.93;2.10;;;9.60;90.00;;;;;;5092658;28;20035;-72
2022/04/07 04:29:27;;;;;;;4.80;1.40;;;9.70;90.00;;;;;;5112538;28;20431;-72
2022/04/07 04:31:53;;;;;;;4.63;1.65;;;9.80;90.00;;;;;;5093360;28;20070;-73
2022/04/07 04:34:19;;;;;;;6.22;1.55;;;9.70;89.80;;;;;;5092679;28;20040;-72
2022/04/07 04:36:45;;;;;;;4.78;1.90;;;9.70;89.70;;;;;;5093953;28;20032;-73
2022/04/07 04:39:10;;;;;;;4.15;1.33;;;9.70;89.60;;;;;;5112757;28;20039;-72
2022/04/07 04:41:36;;;;;;;2.47;1.40;;;9.70;89.60;;;;;;5112709;28;20028;-72
2022/04/07 04:44:02;;;;;;;3.30;1.25;;;9.70;89.60;;;;;;5112344;28;20032;-72
2022/04/07 04:46:28;;;;;;;4.78;1.33;;;9.70;89.60;;;;;;5112849;28;20130;-72
2022/04/07 04:48:54;;;;;;;3.92;1.40;;;9.70;89.50;;;;;;5112675;28;20067;-72
2022/04/07 04:51:20;;;;;;;3.95;1.48;;;9.80;89.40;;;;;;5112184;28;20032;-72
2022/04/07 04:53:45;;;;;;;4.88;1.67;;;9.80;89.20;;;;;;5112876;28;20077;-72
2022/04/07 04:56:11;;;;;;;3.33;1.30;;;9.80;89.10;;;;;;5112730;28;20032;-72
2022/04/07 04:58:37;;;;;;;3.92;1.40;;;9.80;88.90;;;;;;5092780;28;20044;-71
2022/04/07 05:01:03;;;;;;;3.80;1.40;;;9.90;88.90;;;;;;5112724;28;20488;-71
2022/04/07 05:03:29;;;;;;;4.68;1.27;;;9.90;88.60;;;;;;5112631;28;20143;-70
2022/04/07 05:05:54;;;;;;;5.32;1.80;;;9.90;88.50;;;;;;5112506;28;20050;-72
2022/04/07 05:08:20;;;;;;;6.88;1.63;;;9.90;88.40;;;;;;5112758;28;20078;-71
2022/04/07 05:10:46;;;;;;;5.35;1.33;;;9.90;88.30;;;;;;5115625;28;20504;-71
2022/04/07 05:13:12;;;;;;;4.43;1.38;;;9.90;88.30;;;;;;5097408;28;20130;-72
2022/04/07 05:15:39;;;;;;;3.13;1.30;;;9.90;88.20;;;;;;5095514;28;20546;-71
2022/04/07 05:18:05;;;;;;;2.30;1.05;;;10.00;88.20;;;;;;5115423;28;20047;-72
2022/04/07 05:20:31;;;;;;;2.20;1.23;;;9.90;88.10;;;;;;5115467;28;20044;-71
2022/04/07 05:22:57;;;;;;;2.35;1.08;;;9.90;88.10;;;;;;5115530;28;20504;-71
2022/04/07 05:25:23;;;;;;;3.90;1.20;;;9.90;88.10;;;;;;5115308;28;20071;-71
2022/04/07 05:27:48;;;;;;;2.38;1.08;;;10.00;88.10;;;;;;5115786;28;20081;-72
2022/04/07 05:30:15;;;;;;;3.47;1.40;;;9.90;87.90;;;;;;5115304;28;20070;-71
2022/04/07 05:32:43;;;;;;;2.58;1.02;;;10.00;87.90;;;;;;5115366;28;20035;-72
2022/04/07 05:35:11;;;;;;;2.50;1.30;;;9.90;87.90;;;;;;5115300;28;20035;-72
2022/04/07 05:37:37;;;;;;;1.98;1.00;;;9.90;87.90;;;;;;5115330;28;20046;-71
2022/04/07 05:40:04;;;;;;;2.60;0.90;;;10.00;87.80;;;;;;5115590;28;20477;-71
2022/04/07 05:42:30;;;;;;;2.78;1.13;;;10.00;87.80;;;;;;5115044;28;20489;-71
2022/04/07 05:44:56;;;;;;;2.47;1.13;;;10.00;87.90;;;;;;5115279;28;20038;-72
2022/04/07 05:47:21;;;;;;;0.90;0.77;;;10.00;87.80;;;;;;5115252;28;20122;-72
2022/04/07 05:49:47;;;;;;;4.07;1.23;;;10.00;87.80;;;;;;5114806;28;20043;-72
2022/04/07 05:52:13;;;;;;;3.03;1.20;;;9.90;87.90;;;;;;5097240;28;20043;-71
2022/04/07 05:54:39;;;;;;;2.30;1.00;;;9.90;87.90;;;;;;5114963;28;20048;-72
2022/04/07 05:57:06;;;;;;;2.63;1.10;;;9.90;87.90;;;;;;5114608;28;20126;-71
2022/04/07 05:59:32;;;;;;;3.10;1.10;;;10.00;88.10;;;;;;5114596;28;20036;-71
2022/04/07 06:01:59;;;;;;;1.17;1.08;;;9.90;88.10;;;;;;5114420;28;20044;-71
2022/04/07 06:04:24;;;;;;;2.88;1.13;;;9.90;88.10;;;;;;5114831;28;20069;-71
2022/04/07 06:06:50;;;;;;;1.65;1.10;;;9.90;88.20;;;;;;5095499;28;20044;-71
2022/04/07 06:09:16;;;;;;;1.83;1.08;;;9.80;88.30;;;;;;5094976;28;20481;-72
2022/04/07 06:11:41;;;;;;;1.73;1.08;;;9.80;88.50;;;;;;5114918;28;20040;-72
2022/04/07 06:14:07;;;;;;;1.38;0.90;;;9.80;88.60;;;;;;5114370;28;20093;-72
2022/04/07 06:16:34;;;;;;;2.92;0.93;;;9.80;88.80;;;;;;5114320;28;20079;-72
2022/04/07 06:19:00;;;;;;;2.00;1.00;;;9.70;89.00;;;;;;5114088;28;20485;-71
2022/04/07 06:21:29;;;;;;;2.45;1.08;;;9.80;89.10;;;;;;5113513;28;20058;-72
2022/04/07 06:23:55;;;;;;;3.38;1.02;;;9.60;89.10;;;;;;5114437;28;20086;-71
2022/04/07 06:26:21;;;;;;;1.73;1.05;;;9.60;89.30;;;;;;5114496;28;20044;-72
2022/04/07 06:28:46;;;;;;;2.30;0.90;;;9.60;89.40;;;;;;5094640;28;20131;-72
2022/04/07 06:31:12;;;;;;;2.65;1.10;;;9.60;89.50;;;;;;5114219;28;20122;-71
2022/04/07 06:33:38;;;;;;;2.92;1.10;;;9.60;89.70;;;;;;5114244;28;20077;-72
2022/04/07 06:36:05;;;;;;;2.25;0.90;;;9.50;89.70;;;;;;5114173;28;20075;-72
2022/04/07 06:38:31;;;;;;;3.10;1.30;;;9.50;89.80;;;;;;5114062;28;20124;-72
2022/04/07 06:40:58;;;;;;;3.00;1.30;;;9.50;90.00;;;;;;5096175;28;20167;-72
2022/04/07 06:43:24;;;;;;;1.80;1.17;;;9.50;90.10;;;;;;5095778;28;20043;-72
2022/04/07 06:45:49;;;;;;;2.88;1.27;;;9.50;90.10;;;;;;5114578;28;20362;-73
2022/04/07 06:48:15;;;;;;;2.15;1.15;;;9.40;90.10;;;;;;5095760;28;20502;-73
2022/04/07 06:50:42;;;;;;;2.22;1.05;;;9.40;90.10;;;;;;5114274;28;20051;-72
2022/04/07 06:53:07;;;;;;;1.77;0.90;;;9.40;90.20;;;;;;5113897;28;20123;-73
2022/04/07 06:55:33;;;;;;;1.90;1.02;;;9.40;90.20;;;;;;5114433;28;20123;-73
2022/04/07 06:58:01;;;;;;;2.83;1.20;;;9.50;90.30;;;;;;5113855;28;20484;-73
2022/04/07 07:00:29;;;;;;;1.90;1.00;;;9.40;90.20;;;;;;5113793;28;20053;-73
2022/04/07 07:02:57;;;;;;;2.03;0.98;;;9.40;90.30;;;;;;5114298;28;20031;-74
2022/04/07 07:05:25;;;;;;;1.35;1.00;;;9.40;90.30;;;;;;5095773;28;20122;-74
2022/04/07 07:07:51;;;;;;;2.20;0.90;;;9.40;90.30;;;;;;5095648;28;20055;-72
2022/04/07 07:10:20;;;;;;;1.55;0.85;;;9.30;90.30;;;;;;5078600;28;20071;-73
2022/04/07 07:12:47;;;;;;;1.67;0.75;;;9.40;90.30;;;;;;5079142;28;20035;-73
2022/04/07 07:15:12;;;;;;;1.30;0.70;;;8.90;90.20;;;;;;5094692;28;20089;-74
2022/04/07 07:17:39;;;;;;;0.85;0.60;;;8.50;90.20;;;;;;5095473;28;20125;-74
2022/04/07 07:20:08;;;;;;;0.63;0.40;;;8.10;90.70;;;;;;5113691;28;20511;-74
2022/04/07 07:22:34;;;;;;;0.43;0.30;;;7.60;91.10;;;;;;5095107;28;20074;-73
2022/04/07 07:25:00;;;;;;;0.82;0.40;;;7.30;91.40;;;;;;5114052;28;20043;-73
2022/04/07 07:27:26;;;;;;;0.20;0.20;;;7.10;91.60;;;;;;5113340;28;20421;-73
2022/04/07 07:29:52;;;;;;;0.30;0.20;;;6.90;91.70;;;;;;5113473;28;20035;-72
2022/04/07 07:32:17;;;;;;;0.15;0.15;;;6.80;91.70;;;;;;5112544;28;20496;-73
2022/04/07 07:34:43;;;;;;;0.35;0.20;;;6.70;91.80;;;;;;5113412;28;20039;-73
2022/04/07 07:37:09;;;;;;;0.85;0.10;;;6.70;91.80;;;;;;5093559;28;20393;-74
2022/04/07 07:39:35;;;;;;;0.90;0.20;;;6.70;91.80;;;;;;5095129;28;20035;-73
2022/04/07 07:42:00;;;;;;;0.10;0.10;;;6.70;91.80;;;;;;5113014;28;20043;-73
2022/04/07 07:44:26;;;;;;;0.52;0.20;;;6.60;91.70;;;;;;5113051;28;20400;-74
2022/04/07 07:46:52;;;;;;;0.10;0.10;;;6.60;91.60;;;;;;5093273;28;20036;-72
2022/04/07 07:49:17;;;;;;;0.10;0.10;;;6.70;91.60;;;;;;5113043;28;20059;-73
2022/04/07 07:51:43;;;;;;;0.40;0.15;;;6.70;91.90;;;;;;5093707;28;20061;-74
2022/04/07 07:54:09;;;;;;;0.55;0.30;;;6.60;91.50;;;;;;5093137;28;20040;-73
2022/04/07 07:56:35;;;;;;;0.20;0.20;;;6.60;91.50;;;;;;5094583;28;20084;-73
2022/04/07 07:59:00;;;;;;;0.10;0.10;;;6.60;91.40;;;;;;5112981;28;20042;-73
2022/04/07 08:01:26;;;;;;;0.10;0.10;;;6.60;91.50;;;;;;5095109;28;20131;-73
2022/04/07 08:03:52;;;;;;;0.10;0.10;;;6.60;91.50;;;;;;5078015;28;20036;-74
2022/04/07 08:06:18;;;;;;;0.20;0.15;;;6.60;91.40;;;;;;5113222;28;20054;-74
2022/04/07 08:08:44;;;;;;;0.30;0.20;;;6.50;91.40;;;;;;5076459;28;20037;-74
2022/04/07 08:11:10;;;;;;;0.90;0.20;;;6.50;91.30;;;;;;5094744;28;20104;-74
2022/04/07 08:13:36;;;;;;;0.28;0.20;;;6.50;91.40;;;;;;5113282;28;20043;-74
2022/04/07 08:16:02;;;;;;;0.30;0.20;;;6.50;91.30;;;;;;5113143;28;20036;-74
2022/04/07 08:18:28;;;;;;;0.50;0.20;;;6.50;91.30;;;;;;5077786;28;20051;-73
2022/04/07 08:20:54;;;;;;;0.20;0.20;;;6.50;91.30;;;;;;5077864;28;20039;-73
2022/04/07 08:23:20;;;;;;;0.22;0.13;;;6.50;91.30;;;;;;5095088;28;20148;-73
2022/04/07 08:25:45;;;;;;;0.70;0.25;;;6.60;91.30;;;;;;5077567;28;20374;-74
2022/04/07 08:28:11;;;;;;;0.45;0.15;;;6.60;91.30;;;;;;5092687;28;20383;-73
2022/04/07 08:30:40;;;;;;;0.10;0.10;;;6.60;91.30;;;;;;5112963;28;20047;-74
2022/04/07 08:33:06;;;;;;;0.22;0.03;;;6.60;91.30;;;;;;5060203;28;20107;-74
2022/04/07 08:35:32;;;;;;;0.20;0.20;;;6.70;91.30;;;;;;5094319;28;20512;-74
2022/04/07 08:37:58;;;;;;;0.17;0.10;;;6.80;91.20;;;;;;5077733;28;20148;-74
2022/04/07 08:40:24;;;;;;;0.10;0.10;;;6.90;91.50;;;;;;5112541;28;20386;-74
2022/04/07 08:42:50;;;;;;;0.45;0.20;;;7.00;91.00;;;;;;5094317;28;20048;-73
2022/04/07 08:45:16;;;;;;;0.22;0.20;;;7.10;91.00;;;;;;5115380;28;20109;-74
2022/04/07 08:47:46;;;;;;;0.57;0.22;;;7.20;90.90;;;;;;5116246;28;20485;-74
2022/04/07 08:50:14;;;;;;;2.15;0.30;;;7.50;90.80;;;;;;5112395;28;20473;-73
2022/04/07 08:52:41;;;;;;;0.45;0.20;;;7.40;90.80;;;;;;5097467;28;20396;-73
2022/04/07 08:55:08;;;;;;;0.17;0.17;;;7.50;90.90;;;;;;5115911;28;20043;-74
2022/04/07 08:57:36;;;;;;;0.20;0.20;;;7.60;90.80;;;;;;5096466;28;20400;-73
2022/04/07 09:00:02;;;;;;;2.00;0.40;;;7.80;90.80;;;;;;5116421;28;20484;-73
2022/04/07 09:02:28;;;;;;;0.98;0.40;;;8.10;90.60;;;;;;5078453;28;20035;-73
2022/04/07 09:04:58;;;;;;;0.47;0.40;;;8.20;90.40;;;;;;5098025;28;20077;-73
2022/04/07 09:07:31;;;;;;;0.60;0.43;;;8.40;90.40;;;;;;5097306;28;20447;-73
2022/04/07 09:09:59;;;;;;;0.55;0.40;;;8.60;90.20;;;;;;5115793;28;20112;-73
2022/04/07 09:12:25;;;;;;;0.50;0.30;;;8.70;90.00;;;;;;5116164;28;20090;-73
2022/04/07 09:14:57;;;;;;;0.50;0.30;;;8.70;89.90;;;;;;5115604;28;20485;-73
2022/04/07 09:17:23;;;;;;;;;;;8.80;90.00;;;;;;5115821;28;20044;-74
2022/04/07 09:19:50;;;;;;;0.82;0.30;;;8.80;90.00;;;;;;5115453;28;19919;-74
2022/04/07 09:22:16;;;;;;;1.48;0.45;;;9.00;90.00;;;;;;5115350;28;20073;-73
2022/04/07 09:24:42;;;;;;;0.93;0.43;;;9.10;89.90;;;;;;5115490;28;20031;-74
2022/04/07 09:27:10;;;;;;;0.77;0.40;;;9.20;89.90;;;;;;5115288;28;20044;-73
2022/04/07 09:29:42;;;;;;;1.75;0.70;;;9.40;89.70;;;;;;5115635;28;20462;-73
2022/04/07 09:32:25;;;;;;;1.95;0.75;;;9.40;89.40;;;;;;5115147;28;20221;-74
2022/04/07 09:34:59;;;;;;;2.83;0.60;;;9.50;89.40;;;;;;5115014;28;20035;-74
2022/04/07 09:37:27;;;;;;;1.98;0.63;;;9.40;89.20;;;;;;5115749;28;20377;-73
2022/04/07 09:40:06;;;;;;;1.73;0.77;;;9.50;89.40;;;;;;5080246;28;20046;-73
2022/04/07 09:42:33;;;;;;;1.15;0.60;;;9.50;89.40;;;;;;5114835;28;20055;-74
2022/04/07 09:45:01;;;;;;;0.88;0.60;;;9.70;89.50;;;;;;5114933;28;20119;-74
2022/04/07 09:47:35;;;;;;;3.22;0.82;;;9.60;89.30;;;;;;5115025;28;20027;-74
2022/04/07 09:50:02;;;;;;;1.42;0.52;;;9.70;89.30;;;;;;5115442;28;20035;-72
2022/04/07 09:52:28;;;;;;;2.67;0.90;;;9.70;89.10;;;;;;5114934;28;20576;-71
2022/04/07 09:55:01;;;;;;;4.43;0.90;;;9.70;88.90;;;;;;5114876;28;20040;-74
2022/04/07 09:57:28;;;;;;;1.15;0.60;;;9.80;88.80;;;;;;5114341;28;20511;-73
2022/04/07 09:59:56;;;;;;;2.20;0.70;;;9.90;88.60;;;;;;5096657;28;20139;-72
2022/04/07 10:02:23;;;;;;;2.15;0.50;;;10.00;88.60;;;;;;5114533;28;20064;-73
2022/04/07 10:04:50;;;;;;;1.88;0.70;;;10.10;88.10;;;;;;5096558;28;20036;-72
2022/04/07 10:07:16;;;;;;;2.63;0.80;;;10.20;88.00;;;;;;5114824;28;20040;-72
2022/04/07 10:09:42;;;;;;;1.30;0.63;;;10.30;87.50;;;;;;5114438;28;20515;-71
2022/04/07 10:12:10;;;;;;;2.97;0.88;;;10.40;87.00;;;;;;5114946;28;20122;-73
2022/04/07 10:14:37;;;;;;;3.03;0.77;;;10.40;86.80;;;;;;5114414;28;20034;-73
2022/04/07 10:17:03;;;;;;;1.77;0.60;;;10.40;86.80;;;;;;5114400;28;20059;-72
2022/04/07 10:19:34;;;;;;;3.47;0.55;;;10.50;86.90;;;;;;5095872;28;20091;-72
2022/04/07 10:22:15;;;;;;;2.40;0.63;;;10.50;86.60;;;;;;5114102;28;20449;-72
2022/04/07 10:24:47;;;;;;;1.85;0.77;;;10.70;86.50;;;;;;5114230;28;20044;-72
2022/04/07 10:27:18;;;;;;;4.57;1.25;;;10.90;85.80;;;;;;5094684;28;20444;-71
2022/04/07 10:30:11;;;;;;;4.57;1.02;;;11.10;84.80;;;;;;5114265;28;20040;-72
2022/04/07 10:32:41;;;;;;;0.90;0.60;;;11.30;84.20;;;;;;5114833;28;20046;-71
2022/04/07 10:35:10;;;;;;;3.85;0.75;;;11.30;83.70;;;;;;5114341;28;20054;-71
2022/04/07 10:37:46;;;;;;;1.52;0.70;;;11.20;83.50;;;;;;5113852;28;20509;-71
2022/04/07 10:40:38;;;;;;;4.15;1.10;;;11.10;83.30;;;;;;5096539;28;20423;-70
2022/04/07 10:43:20;;;;;;;6.32;1.23;;;10.90;83.00;;;;;;5113617;28;20054;-70
2022/04/07 10:45:52;;;;;;;3.08;0.88;;;10.70;83.00;;;;;;5095690;28;20393;-71
2022/04/07 10:48:28;;;;;;;3.80;1.10;;;10.70;83.00;;;;;;5114117;28;20032;-72
2022/04/07 10:51:00;;;;;;;4.38;1.05;;;10.70;82.90;;;;;;5114292;28;20040;-70
2022/04/07 10:53:30;;;;;;;3.20;0.88;;;10.70;82.60;;;;;;5110499;28;20536;-70
2022/04/07 10:56:05;;;;;;;3.47;0.93;;;10.70;82.50;;;;;;5095688;28;20123;-71
2022/04/07 10:58:40;;;;;;;3.15;1.13;;;10.70;82.40;;;;;;5113581;28;20071;-70
2022/04/07 11:01:06;;;;;;;5.47;1.20;;;10.80;81.60;;;;;;5095414;28;20035;-72
2022/04/07 11:03:33;;;;;;;2.83;1.20;;;10.80;81.20;;;;;;5113501;28;20054;-71
2022/04/07 11:06:00;;;;;;;5.50;1.10;;;10.80;81.30;;;;;;5113976;28;20158;-70
2022/04/07 11:08:30;;;;;;;4.68;1.42;;;10.80;81.00;;;;;;5113255;28;20040;-71
2022/04/07 11:10:56;;;;;;;6.32;1.70;;;10.80;80.50;;;;;;5113797;28;20370;-71
2022/04/07 11:13:50;;;;;;;8.32;1.65;;;10.70;79.90;;;;;;5113978;28;20097;-72
2022/04/07 11:16:25;;;;;;;8.75;1.80;;;10.60;79.60;;;;;;5114256;28;20055;-72
2022/04/07 11:19:12;;;;;;;6.53;1.65;;;10.50;79.70;;;;;;5113900;28;20043;-72
2022/04/07 11:21:49;;;;;;;2.25;0.90;;;10.40;79.80;;;;;;5113401;28;20039;-72
2022/04/07 11:24:23;;;;;;;4.13;1.20;;;10.40;80.10;;;;;;5112915;28;20508;-71
2022/04/07 11:26:49;;;;;;;4.32;1.30;;;10.40;80.00;;;;;;5113391;28;20586;-71
2022/04/07 11:29:29;;;;;;;5.97;1.30;;;10.40;79.80;;;;;;5113441;28;20044;-72
2022/04/07 11:32:06;;;;;;;6.45;1.48;;;10.40;79.30;;;;;;5113260;28;20043;-71
2022/04/07 11:34:51;;;;;;;5.32;1.40;;;10.30;79.10;;;;;;5093494;28;20047;-73
2022/04/07 11:37:19;;;;;;;6.72;1.35;;;10.30;78.80;;;;;;5076276;28;20043;-71
2022/04/07 11:39:48;;;;;;;5.47;1.25;;;10.20;78.70;;;;;;5094866;28;20036;-70
2022/04/07 11:42:16;;;;;;;3.45;1.20;;;10.30;78.30;;;;;;5095439;28;20071;-71
2022/04/07 11:44:44;;;;;;;7.35;1.80;;;10.20;78.40;;;;;;5113108;28;20031;-71
2022/04/07 11:47:27;;;;;;;5.45;1.48;;;10.20;77.90;;;;;;5094020;28;20090;-71
2022/04/07 11:49:53;;;;;;;5.03;1.50;;;10.20;77.60;;;;;;5112956;28;20040;-71
2022/04/07 11:52:24;;;;;;;2.78;1.05;;;10.30;77.60;;;;;;5113583;28;20040;-71
2022/04/07 11:54:52;;;;;;;5.68;1.13;;;10.40;77.60;;;;;;5061487;28;20036;-70
2022/04/07 11:57:18;;;;;;;5.95;1.33;;;10.60;76.80;;;;;;5094874;28;20039;-71
2022/04/07 11:59:44;;;;;;;2.92;1.15;;;10.60;76.40;;;;;;5094265;28;20118;-69
2022/04/07 12:02:10;;;;;;;5.47;1.38;;;10.60;76.40;;;;;;5112627;28;20508;-70
2022/04/07 12:04:36;;;;;;;4.82;1.60;;;10.70;76.70;;;;;;5093050;28;20081;-71
2022/04/07 12:07:02;;;;;;;4.65;1.20;;;10.70;76.40;;;;;;5112685;28;20393;-70
2022/04/07 12:09:27;;;;;;;3.45;1.23;;;10.60;76.20;;;;;;5112813;28;20489;-70
2022/04/07 12:11:54;;;;;;;5.22;1.55;;;10.60;76.00;;;;;;5076372;28;20040;-70
2022/04/07 12:14:24;;;;;;;5.72;1.17;;;10.60;76.30;;;;;;5094838;28;20047;-71
2022/04/07 12:16:51;;;;;;;4.25;1.10;;;10.60;76.40;;;;;;5112893;28;20097;-71
2022/04/07 12:19:18;;;;;;;5.10;1.30;;;10.60;76.30;;;;;;5112111;28;20046;-70
2022/04/07 12:21:54;;;;;;;5.35;1.40;;;10.60;76.40;;;;;;5094383;28;20059;-70
2022/04/07 12:24:20;;;;;;;5.28;1.40;;;10.60;76.40;;;;;;5112582;28;20444;-71
2022/04/07 12:26:48;;;;;;;4.20;1.17;;;10.60;76.30;;;;;;5094598;28;20131;-70
2022/04/07 12:29:15;;;;;;;5.32;1.38;;;10.60;76.40;;;;;;5112575;28;20039;-71
2022/04/07 12:31:41;;;;;;;6.88;1.65;;;10.60;76.50;;;;;;5094206;28;20103;-70
2022/04/07 12:34:11;;;;;;;4.70;1.60;;;10.50;76.20;;;;;;5094126;28;20065;-71
2022/04/07 12:36:39;;;;;;;7.13;1.55;;;10.50;76.20;;;;;;5094272;28;20040;-71
2022/04/07 12:39:11;;;;;;;3.13;1.30;;;10.40;75.80;;;;;;5093894;28;20043;-72
2022/04/07 12:41:40;;;;;;;4.50;1.30;;;10.40;76.10;;;;;;5094141;28;20039;-71
2022/04/07 12:44:09;;;;;;;3.80;1.20;;;10.40;76.00;;;;;;5093666;28;20112;-70
2022/04/07 12:46:52;;;;;;;6.05;1.73;;;10.50;76.20;;;;;;5093812;28;20489;-72
2022/04/07 12:49:31;;;;;;;5.10;1.52;;;10.50;76.20;;;;;;5111543;28;20078;-72
2022/04/07 12:52:13;;;;;;;9.48;1.73;;;10.60;76.00;;;;;;5112549;28;20082;-71
2022/04/07 12:54:56;;;;;;;6.03;1.88;;;10.60;75.50;;;;;;5112272;28;20051;-72
2022/04/07 12:57:22;;;;;;;6.63;1.65;;;10.70;75.10;;;;;;5112062;28;20063;-70